createdAt,value
2016-09-17T00:00:42.082Z,1006.49
2016-09-17T00:01:42.107Z,1006.45
2016-09-17T00:02:42.136Z,1006.49
2016-09-17T00:03:42.159Z,1006.5
2016-09-17T00:04:42.186Z,1006.49
2016-09-17T00:05:42.214Z,1006.45
2016-09-17T00:06:42.241Z,1006.51
2016-09-17T00:07:42.266Z,1006.49
2016-09-17T00:08:42.291Z,1006.46
2016-09-17T00:09:42.318Z,1006.46
2016-09-17T00:10:42.343Z,1006.49
2016-09-17T00:12:42.396Z,1006.49
2016-09-17T00:13:42.425Z,1006.5
2016-09-17T00:14:42.448Z,1006.49
2016-09-17T00:15:42.477Z,1006.45
2016-09-17T00:16:42.504Z,1006.46
2016-09-17T00:17:42.528Z,1006.46
2016-09-17T00:18:42.556Z,1006.48
2016-09-17T00:19:42.581Z,1006.47
2016-09-17T00:20:42.608Z,1006.49
2016-09-17T00:21:42.633Z,1006.46
2016-09-17T00:22:42.660Z,1006.47
2016-09-17T00:23:42.685Z,1006.49
2016-09-17T00:24:42.711Z,1006.49
2016-09-17T00:25:42.739Z,1006.49
2016-09-17T00:26:42.765Z,1006.55
2016-09-17T00:28:42.816Z,1006.54
2016-09-17T00:29:42.842Z,1006.6
2016-09-17T00:30:42.867Z,1006.64
2016-09-17T00:31:42.897Z,1006.61
2016-09-17T00:32:42.919Z,1006.63
2016-09-17T00:33:42.949Z,1006.63
2016-09-17T00:34:42.973Z,1006.63
2016-09-17T00:35:42.999Z,1006.64
2016-09-17T00:36:43.025Z,1006.6
2016-09-17T00:37:43.052Z,1006.62
2016-09-17T00:38:43.080Z,1006.63
2016-09-17T00:39:43.103Z,1006.63
2016-09-17T00:40:43.132Z,1006.61
2016-09-17T00:41:43.159Z,1006.66
2016-09-17T00:42:43.183Z,1006.62
2016-09-17T00:44:43.240Z,1006.6
2016-09-17T00:45:43.261Z,1006.59
2016-09-17T00:46:43.287Z,1006.6
2016-09-17T00:47:43.314Z,1006.63
2016-09-17T00:48:43.342Z,1006.62
2016-09-17T00:49:43.367Z,1006.66
2016-09-17T00:50:43.399Z,1006.67
2016-09-17T00:51:43.419Z,1006.65
2016-09-17T00:52:43.445Z,1006.65
2016-09-17T00:53:43.473Z,1006.66
2016-09-17T00:54:43.498Z,1006.7
2016-09-17T00:55:43.523Z,1006.73
2016-09-17T00:56:43.551Z,1006.69
2016-09-17T00:57:43.578Z,1006.71
2016-09-17T00:58:43.602Z,1006.75
2016-09-17T01:00:43.655Z,1006.74
2016-09-17T01:01:43.681Z,1006.73
2016-09-17T01:02:43.707Z,1006.8
2016-09-17T01:03:43.734Z,1006.78
2016-09-17T01:04:43.762Z,1006.77
2016-09-17T01:05:43.787Z,1006.76
2016-09-17T01:06:43.812Z,1006.74
2016-09-17T01:07:43.841Z,1006.74
2016-09-17T01:08:43.868Z,1006.74
2016-09-17T01:09:43.892Z,1006.73
2016-09-17T01:10:43.917Z,1006.7
2016-09-17T01:11:43.946Z,1006.7
2016-09-17T01:12:43.972Z,1006.74
2016-09-17T01:13:43.997Z,1006.71
2016-09-17T01:15:44.050Z,1006.67
2016-09-17T01:16:44.075Z,1006.7
2016-09-17T01:17:44.103Z,1006.72
2016-09-17T01:18:44.128Z,1006.74
2016-09-17T01:19:44.156Z,1006.73
2016-09-17T01:20:44.182Z,1006.79
2016-09-17T01:21:44.206Z,1006.84
2016-09-17T01:22:44.235Z,1006.85
2016-09-17T01:23:44.260Z,1006.85
2016-09-17T01:24:44.284Z,1006.87
2016-09-17T01:25:44.311Z,1006.89
2016-09-17T01:26:44.337Z,1006.88
2016-09-17T01:27:44.363Z,1006.87
2016-09-17T01:28:44.389Z,1006.89
2016-09-17T01:29:44.418Z,1006.86
2016-09-17T01:30:44.442Z,1006.85
2016-09-17T01:31:44.468Z,1006.86
2016-09-17T01:32:44.496Z,1006.84
2016-09-17T01:33:44.521Z,1006.86
2016-09-17T01:34:44.548Z,1006.9
2016-09-17T01:35:44.572Z,1006.9
2016-09-17T01:36:44.599Z,1006.94
2016-09-17T01:37:44.625Z,1006.94
2016-09-17T01:38:44.653Z,1006.93
2016-09-17T01:39:44.679Z,1006.98
2016-09-17T01:40:44.704Z,1007.01
2016-09-17T01:41:44.782Z,1006.99
2016-09-17T01:42:44.757Z,1007
2016-09-17T01:43:44.784Z,1007.02
2016-09-17T01:44:44.810Z,1007.07
2016-09-17T01:45:44.834Z,1007.04
2016-09-17T01:47:44.887Z,1007.04
2016-09-17T01:48:44.915Z,1007.04
2016-09-17T01:49:44.939Z,1007.07
2016-09-17T01:50:44.965Z,1007.06
2016-09-17T01:51:44.990Z,1007.01
2016-09-17T01:52:45.017Z,1007
2016-09-17T01:53:45.042Z,1006.96
2016-09-17T01:54:45.069Z,1006.96
2016-09-17T01:55:45.096Z,1006.9
2016-09-17T01:56:45.126Z,1006.92
2016-09-17T01:57:45.149Z,1006.9
2016-09-17T01:58:45.175Z,1006.88
2016-09-17T01:59:45.217Z,1006.88
2016-09-17T02:00:45.227Z,1006.84
2016-09-17T02:01:45.251Z,1006.83
2016-09-17T02:03:45.304Z,1006.79
2016-09-17T02:04:45.329Z,1006.85
2016-09-17T02:05:45.355Z,1006.84
2016-09-17T02:06:45.384Z,1006.93
2016-09-17T02:07:45.406Z,1006.92
2016-09-17T02:08:45.434Z,1006.92
2016-09-17T02:09:45.460Z,1006.91
2016-09-17T02:10:45.485Z,1006.93
2016-09-17T02:11:45.511Z,1006.94
2016-09-17T02:12:45.536Z,1006.93
2016-09-17T02:13:45.563Z,1006.91
2016-09-17T02:14:45.592Z,1006.9
2016-09-17T02:15:45.617Z,1006.89
2016-09-17T02:16:45.643Z,1006.91
2016-09-17T02:17:45.669Z,1006.91
2016-09-17T02:19:45.718Z,1006.92
2016-09-17T02:20:45.745Z,1006.93
2016-09-17T02:21:45.773Z,1006.96
2016-09-17T02:22:45.796Z,1006.99
2016-09-17T02:23:45.875Z,1006.94
2016-09-17T02:24:45.850Z,1006.96
2016-09-17T02:25:45.877Z,1006.98
2016-09-17T02:26:45.902Z,1006.96
2016-09-17T02:27:45.926Z,1006.96
2016-09-17T02:28:45.951Z,1006.95
2016-09-17T02:29:45.979Z,1006.97
2016-09-17T02:30:46.005Z,1006.98
2016-09-17T02:31:46.029Z,1006.91
2016-09-17T02:32:46.058Z,1006.86
2016-09-17T02:33:46.080Z,1006.91
2016-09-17T02:35:46.135Z,1006.88
2016-09-17T02:36:46.159Z,1006.89
2016-09-17T02:37:46.186Z,1006.87
2016-09-17T02:38:46.212Z,1006.87
2016-09-17T02:39:46.286Z,1006.86
2016-09-17T02:40:46.261Z,1006.83
2016-09-17T02:41:46.287Z,1006.83
2016-09-17T02:42:46.313Z,1006.78
2016-09-17T02:43:46.341Z,1006.74
2016-09-17T02:44:46.365Z,1006.75
2016-09-17T02:45:46.390Z,1006.78
2016-09-17T02:46:46.417Z,1006.77
2016-09-17T02:47:46.445Z,1006.81
2016-09-17T02:48:46.468Z,1006.77
2016-09-17T02:50:46.519Z,1006.79
2016-09-17T02:51:46.548Z,1006.78
2016-09-17T02:52:46.571Z,1006.79
2016-09-17T02:53:46.598Z,1006.75
2016-09-17T02:54:46.623Z,1006.78
2016-09-17T02:55:46.651Z,1006.78
2016-09-17T02:56:46.676Z,1006.75
2016-09-17T02:57:46.703Z,1006.77
2016-09-17T02:58:46.727Z,1006.76
2016-09-17T02:59:46.753Z,1006.75
2016-09-17T03:00:46.777Z,1006.76
2016-09-17T03:01:46.805Z,1006.76
2016-09-17T03:02:46.831Z,1006.75
2016-09-17T03:03:46.856Z,1006.76
2016-09-17T03:04:46.881Z,1006.78
2016-09-17T03:05:46.908Z,1006.76
2016-09-17T03:06:46.931Z,1006.75
2016-09-17T03:07:46.957Z,1006.76
2016-09-17T03:08:46.983Z,1006.73
2016-09-17T03:09:47.010Z,1006.69
2016-09-17T03:10:47.034Z,1006.68
2016-09-17T03:11:47.059Z,1006.69
2016-09-17T03:12:47.088Z,1006.69
2016-09-17T03:13:47.110Z,1006.72
2016-09-17T03:14:47.138Z,1006.76
2016-09-17T03:15:47.162Z,1006.73
2016-09-17T03:16:47.187Z,1006.72
2016-09-17T03:17:47.213Z,1006.72
2016-09-17T03:18:47.238Z,1006.73
2016-09-17T03:19:47.265Z,1006.72
2016-09-17T03:20:47.289Z,1006.71
2016-09-17T03:22:47.343Z,1006.7
2016-09-17T03:23:47.374Z,1006.66
2016-09-17T03:24:47.392Z,1006.69
2016-09-17T03:25:47.420Z,1006.68
2016-09-17T03:26:47.446Z,1006.68
2016-09-17T03:27:47.469Z,1006.69
2016-09-17T03:28:47.496Z,1006.66
2016-09-17T03:29:47.521Z,1006.69
2016-09-17T03:30:47.548Z,1006.68
2016-09-17T03:31:47.570Z,1006.62
2016-09-17T03:32:47.598Z,1006.71
2016-09-17T03:33:47.622Z,1006.67
2016-09-17T03:34:47.648Z,1006.75
2016-09-17T03:35:47.675Z,1006.75
2016-09-17T03:36:47.699Z,1006.75
2016-09-17T03:38:47.750Z,1006.82
2016-09-17T03:39:47.776Z,1006.81
2016-09-17T03:40:47.803Z,1006.79
2016-09-17T03:41:47.828Z,1006.78
2016-09-17T03:42:47.851Z,1006.82
2016-09-17T03:43:47.877Z,1006.78
2016-09-17T03:44:47.902Z,1006.82
2016-09-17T03:45:47.930Z,1006.84
2016-09-17T03:46:47.954Z,1006.82
2016-09-17T03:47:47.979Z,1006.84
2016-09-17T03:48:48.004Z,1006.86
2016-09-17T03:49:48.029Z,1006.85
2016-09-17T03:50:48.056Z,1006.84
2016-09-17T03:51:48.082Z,1006.83
2016-09-17T03:52:48.107Z,1006.84
2016-09-17T03:54:48.156Z,1006.87
2016-09-17T03:55:48.182Z,1006.82
2016-09-17T03:56:48.208Z,1006.84
2016-09-17T03:57:48.235Z,1006.78
2016-09-17T03:58:48.257Z,1006.77
2016-09-17T03:59:48.286Z,1006.76
2016-09-17T04:00:48.311Z,1006.73
2016-09-17T04:01:48.335Z,1006.72
2016-09-17T04:02:48.362Z,1006.75
2016-09-17T04:03:48.386Z,1006.76
2016-09-17T04:04:48.411Z,1006.76
2016-09-17T04:05:48.436Z,1006.8
2016-09-17T04:06:48.461Z,1006.79
2016-09-17T04:07:48.489Z,1006.81
2016-09-17T04:08:48.514Z,1006.81
2016-09-17T04:10:48.563Z,1006.79
2016-09-17T04:11:48.590Z,1006.77
2016-09-17T04:12:48.615Z,1006.76
2016-09-17T04:13:48.639Z,1006.71
2016-09-17T04:14:48.667Z,1006.72
2016-09-17T04:15:48.691Z,1006.72
2016-09-17T04:16:48.714Z,1006.66
2016-09-17T04:17:48.743Z,1006.69
2016-09-17T04:18:48.767Z,1006.62
2016-09-17T04:19:48.790Z,1006.68
2016-09-17T04:20:48.818Z,1006.65
2016-09-17T04:21:48.844Z,1006.66
2016-09-17T04:22:48.874Z,1006.71
2016-09-17T04:23:48.893Z,1006.73
2016-09-17T04:25:48.946Z,1006.81
2016-09-17T04:26:48.971Z,1006.81
2016-09-17T04:27:48.996Z,1006.84
2016-09-17T04:28:49.022Z,1006.82
2016-09-17T04:29:49.047Z,1006.83
2016-09-17T04:30:49.069Z,1006.85
2016-09-17T04:31:49.095Z,1006.84
2016-09-17T04:32:49.122Z,1006.82
2016-09-17T04:33:49.148Z,1006.85
2016-09-17T04:34:49.173Z,1006.84
2016-09-17T04:35:49.196Z,1006.89
2016-09-17T04:36:49.224Z,1006.91
2016-09-17T04:37:49.248Z,1006.86
2016-09-17T04:38:49.274Z,1006.86
2016-09-17T04:39:49.298Z,1006.91
2016-09-17T04:40:49.325Z,1006.84
2016-09-17T04:41:49.347Z,1006.88
2016-09-17T04:42:49.372Z,1006.87
2016-09-17T04:43:49.401Z,1006.89
2016-09-17T04:44:49.425Z,1006.9
2016-09-17T04:45:49.448Z,1006.86
2016-09-17T04:46:49.476Z,1006.93
2016-09-17T04:47:49.502Z,1006.87
2016-09-17T04:48:49.526Z,1006.9
2016-09-17T04:49:49.552Z,1006.95
2016-09-17T04:50:49.574Z,1007.03
2016-09-17T04:51:49.602Z,1006.97
2016-09-17T04:52:49.626Z,1006.98
2016-09-17T04:53:49.653Z,1007.02
2016-09-17T04:54:49.687Z,1007.04
2016-09-17T04:55:49.700Z,1007.09
2016-09-17T04:57:49.753Z,1007.06
2016-09-17T04:58:49.776Z,1007.1
2016-09-17T04:59:49.802Z,1007.11
2016-09-17T05:00:49.826Z,1007.13
2016-09-17T05:01:49.851Z,1007.13
2016-09-17T05:02:49.877Z,1007.12
2016-09-17T05:03:49.901Z,1007.13
2016-09-17T05:04:49.927Z,1007.15
2016-09-17T05:05:49.954Z,1007.12
2016-09-17T05:06:49.979Z,1007.11
2016-09-17T05:07:50.001Z,1007.04
2016-09-17T05:08:50.028Z,1006.96
2016-09-17T05:09:50.054Z,1006.93
2016-09-17T05:10:50.079Z,1006.87
2016-09-17T05:11:50.104Z,1006.91
2016-09-17T05:13:50.155Z,1006.85
2016-09-17T05:14:50.177Z,1006.84
2016-09-17T05:15:50.205Z,1006.85
2016-09-17T05:16:50.230Z,1006.81
2016-09-17T05:17:50.252Z,1006.86
2016-09-17T05:18:50.279Z,1006.89
2016-09-17T05:19:50.302Z,1006.82
2016-09-17T05:20:50.329Z,1006.88
2016-09-17T05:21:50.353Z,1006.87
2016-09-17T05:22:50.386Z,1006.86
2016-09-17T05:23:50.401Z,1006.82
2016-09-17T05:24:50.426Z,1006.77
2016-09-17T05:25:50.451Z,1006.82
2016-09-17T05:26:50.478Z,1006.81
2016-09-17T05:27:50.503Z,1006.85
2016-09-17T05:29:50.550Z,1006.93
2016-09-17T05:30:50.576Z,1006.9
2016-09-17T05:31:50.602Z,1006.86
2016-09-17T05:32:50.624Z,1006.86
2016-09-17T05:33:50.651Z,1006.86
2016-09-17T05:34:50.676Z,1006.81
2016-09-17T05:35:50.700Z,1006.83
2016-09-17T05:36:50.723Z,1006.88
2016-09-17T05:37:50.749Z,1006.98
2016-09-17T05:38:50.772Z,1006.98
2016-09-17T05:39:50.797Z,1006.82
2016-09-17T05:40:50.822Z,1006.79
2016-09-17T05:41:50.849Z,1006.78
2016-09-17T05:42:50.872Z,1006.77
2016-09-17T05:43:50.896Z,1006.8
2016-09-17T05:45:50.945Z,1006.72
2016-09-17T05:46:50.972Z,1006.65
2016-09-17T05:47:50.993Z,1006.72
2016-09-17T05:48:51.021Z,1006.78
2016-09-17T05:49:51.045Z,1006.71
2016-09-17T05:50:51.067Z,1006.69
2016-09-17T05:51:51.094Z,1006.71
2016-09-17T05:52:51.119Z,1006.71
2016-09-17T05:53:51.145Z,1006.71
2016-09-17T05:54:51.168Z,1006.68
2016-09-17T05:55:51.193Z,1006.72
2016-09-17T05:56:51.216Z,1006.73
2016-09-17T05:57:51.243Z,1006.76
2016-09-17T05:58:51.265Z,1006.72
2016-09-17T06:00:51.317Z,1006.88
2016-09-17T06:01:51.339Z,1006.82
2016-09-17T06:02:51.364Z,1006.82
2016-09-17T06:03:51.395Z,1006.84
2016-09-17T06:04:51.414Z,1006.87
2016-09-17T06:05:51.438Z,1006.81
2016-09-17T06:06:51.463Z,1006.86
2016-09-17T06:07:51.488Z,1006.86
2016-09-17T06:08:51.514Z,1006.79
2016-09-17T06:09:51.538Z,1006.84
2016-09-17T06:10:51.562Z,1006.82
2016-09-17T06:11:51.588Z,1006.85
2016-09-17T06:12:51.611Z,1006.84
2016-09-17T06:13:51.637Z,1006.9
2016-09-17T06:14:51.662Z,1006.85
2016-09-17T06:15:51.685Z,1006.89
2016-09-17T06:16:51.711Z,1006.9
2016-09-17T06:17:51.737Z,1006.89
2016-09-17T06:18:51.762Z,1006.9
2016-09-17T06:19:51.789Z,1006.9
2016-09-17T06:20:51.810Z,1006.94
2016-09-17T06:21:51.836Z,1006.98
2016-09-17T06:22:51.859Z,1007
2016-09-17T06:23:51.885Z,1007.04
2016-09-17T06:24:51.908Z,1007.05
2016-09-17T06:25:51.935Z,1007.1
2016-09-17T06:26:51.958Z,1007.05
2016-09-17T06:27:51.982Z,1007.08
2016-09-17T06:28:52.009Z,1007.06
2016-09-17T06:29:52.035Z,1007.08
2016-09-17T06:30:52.058Z,1007.08
2016-09-17T06:32:52.107Z,1007.02
2016-09-17T06:33:52.132Z,1007.09
2016-09-17T06:34:52.158Z,1007.06
2016-09-17T06:35:52.184Z,1007.04
2016-09-17T06:36:52.208Z,1007.01
2016-09-17T06:37:52.234Z,1007.06
2016-09-17T06:38:52.258Z,1007.02
2016-09-17T06:39:52.284Z,1007.02
2016-09-17T06:40:52.308Z,1007.01
2016-09-17T06:41:52.330Z,1007.01
2016-09-17T06:42:52.357Z,1006.99
2016-09-17T06:43:52.383Z,1007.05
2016-09-17T06:44:52.406Z,1007.05
2016-09-17T06:45:52.431Z,1007.06
2016-09-17T06:46:52.455Z,1007.05
2016-09-17T06:48:52.507Z,1007.04
2016-09-17T06:49:52.533Z,1007.07
2016-09-17T06:50:52.554Z,1007.03
2016-09-17T06:51:52.580Z,1007.05
2016-09-17T06:52:52.604Z,1007.06
2016-09-17T06:53:52.632Z,1007.01
2016-09-17T06:54:52.654Z,1007.06
2016-09-17T06:55:52.680Z,1007.09
2016-09-17T06:56:52.703Z,1007.03
2016-09-17T06:57:52.731Z,1007.03
2016-09-17T06:58:52.754Z,1007.05
2016-09-17T06:59:52.782Z,1007
2016-09-17T07:00:52.805Z,1007.02
2016-09-17T07:01:52.829Z,1007.03
2016-09-17T07:02:52.855Z,1007.03
2016-09-17T07:04:52.905Z,1007.05
2016-09-17T07:05:52.930Z,1007.02
2016-09-17T07:06:52.954Z,1006.98
2016-09-17T07:07:52.980Z,1007.04
2016-09-17T07:08:53.004Z,1007.03
2016-09-17T07:09:53.030Z,1007.07
2016-09-17T07:10:53.055Z,1007
2016-09-17T07:11:53.079Z,1007.09
2016-09-17T07:12:53.107Z,1007.08
2016-09-17T07:13:53.129Z,1007.05
2016-09-17T07:14:53.154Z,1007.1
2016-09-17T07:15:53.179Z,1007.11
2016-09-17T07:16:53.202Z,1007.14
2016-09-17T07:17:53.229Z,1007.16
2016-09-17T07:18:53.252Z,1007.17
2016-09-17T07:20:53.302Z,1007.14
2016-09-17T07:21:53.328Z,1007.17
2016-09-17T07:22:53.352Z,1007.23
2016-09-17T07:23:53.376Z,1007.18
2016-09-17T07:24:53.404Z,1007.14
2016-09-17T07:25:53.427Z,1007.24
2016-09-17T07:26:53.453Z,1007.19
2016-09-17T07:27:53.477Z,1007.23
2016-09-17T07:28:53.502Z,1007.22
2016-09-17T07:29:53.528Z,1007.19
2016-09-17T07:30:53.554Z,1007.21
2016-09-17T07:31:53.579Z,1007.28
2016-09-17T07:32:53.602Z,1007.23
2016-09-17T07:33:53.626Z,1007.25
2016-09-17T07:35:53.677Z,1007.29
2016-09-17T07:36:53.704Z,1007.3
2016-09-17T07:37:53.729Z,1007.29
2016-09-17T07:38:53.753Z,1007.34
2016-09-17T07:39:53.777Z,1007.27
2016-09-17T07:40:53.802Z,1007.36
2016-09-17T07:41:53.829Z,1007.36
2016-09-17T07:42:53.853Z,1007.39
2016-09-17T07:43:53.878Z,1007.42
2016-09-17T07:44:53.904Z,1007.39
2016-09-17T07:45:53.929Z,1007.4
2016-09-17T07:46:53.955Z,1007.41
2016-09-17T07:47:53.978Z,1007.45
2016-09-17T07:48:54.004Z,1007.47
2016-09-17T07:49:54.029Z,1007.5
2016-09-17T07:50:54.053Z,1007.53
2016-09-17T07:51:54.077Z,1007.55
2016-09-17T07:52:54.245Z,1007.55
2016-09-17T07:53:54.127Z,1007.55
2016-09-17T07:54:54.154Z,1007.54
2016-09-17T07:55:54.179Z,1007.59
2016-09-17T07:56:54.213Z,1007.56
2016-09-17T07:57:54.228Z,1007.56
2016-09-17T07:58:54.252Z,1007.56
2016-09-17T07:59:54.627Z,1007.56
2016-09-17T08:00:54.305Z,1007.57
2016-09-17T08:01:54.328Z,1007.57
2016-09-17T08:02:54.352Z,1007.59
2016-09-17T08:03:54.380Z,1007.56
2016-09-17T08:04:54.408Z,1007.58
2016-09-17T08:05:54.430Z,1007.59
2016-09-17T08:07:54.477Z,1007.58
2016-09-17T08:08:54.505Z,1007.58
2016-09-17T08:09:54.529Z,1007.6
2016-09-17T08:10:54.555Z,1007.62
2016-09-17T08:11:54.578Z,1007.59
2016-09-17T08:12:54.606Z,1007.62
2016-09-17T08:13:54.630Z,1007.58
2016-09-17T08:14:54.655Z,1007.58
2016-09-17T08:15:54.679Z,1007.58
2016-09-17T08:16:54.705Z,1007.55
2016-09-17T08:17:54.730Z,1007.59
2016-09-17T08:18:54.754Z,1007.56
2016-09-17T08:19:54.780Z,1007.6
2016-09-17T08:20:54.806Z,1007.57
2016-09-17T08:21:54.830Z,1007.63
2016-09-17T08:23:54.881Z,1007.59
2016-09-17T08:24:54.904Z,1007.64
2016-09-17T08:25:54.932Z,1007.64
2016-09-17T08:26:54.956Z,1007.64
2016-09-17T08:27:54.981Z,1007.61
2016-09-17T08:28:55.005Z,1007.62
2016-09-17T08:29:55.032Z,1007.63
2016-09-17T08:30:55.057Z,1007.61
2016-09-17T08:31:55.080Z,1007.64
2016-09-17T08:32:55.107Z,1007.64
2016-09-17T08:33:55.131Z,1007.68
2016-09-17T08:34:55.156Z,1007.67
2016-09-17T08:35:55.183Z,1007.73
2016-09-17T08:36:55.208Z,1007.68
2016-09-17T08:37:55.231Z,1007.69
2016-09-17T08:39:55.281Z,1007.73
2016-09-17T08:40:55.306Z,1007.72
2016-09-17T08:41:55.333Z,1007.77
2016-09-17T08:42:55.356Z,1007.73
2016-09-17T08:43:55.383Z,1007.74
2016-09-17T08:44:55.407Z,1007.78
2016-09-17T08:45:55.434Z,1007.79
2016-09-17T08:46:55.460Z,1007.82
2016-09-17T08:47:55.484Z,1007.83
2016-09-17T08:48:55.510Z,1007.78
2016-09-17T08:49:55.532Z,1007.81
2016-09-17T08:50:55.558Z,1007.83
2016-09-17T08:51:55.585Z,1007.83
2016-09-17T08:52:55.609Z,1007.84
2016-09-17T08:53:55.636Z,1007.79
2016-09-17T08:55:55.687Z,1007.79
2016-09-17T08:56:55.711Z,1007.8
2016-09-17T08:57:55.737Z,1007.81
2016-09-17T08:58:55.763Z,1007.8
2016-09-17T08:59:55.837Z,1007.82
2016-09-17T09:00:55.813Z,1007.81
2016-09-17T09:01:55.838Z,1007.83
2016-09-17T09:02:55.865Z,1007.87
2016-09-17T09:03:55.888Z,1007.85
2016-09-17T09:04:55.915Z,1007.85
2016-09-17T09:05:55.940Z,1007.8
2016-09-17T09:06:55.966Z,1007.86
2016-09-17T09:07:55.990Z,1007.84
2016-09-17T09:08:56.018Z,1007.82
2016-09-17T09:10:56.069Z,1007.78
2016-09-17T09:11:56.091Z,1007.8
2016-09-17T09:12:56.118Z,1007.79
2016-09-17T09:13:56.143Z,1007.79
2016-09-17T09:14:56.169Z,1007.76
2016-09-17T09:15:56.193Z,1007.81
2016-09-17T09:16:56.219Z,1007.81
2016-09-17T09:17:56.246Z,1007.86
2016-09-17T09:18:56.271Z,1007.88
2016-09-17T09:19:56.295Z,1007.86
2016-09-17T09:20:56.321Z,1007.77
2016-09-17T09:21:56.349Z,1007.77
2016-09-17T09:22:56.372Z,1007.74
2016-09-17T09:23:56.397Z,1007.68
2016-09-17T09:24:56.423Z,1007.66
2016-09-17T09:25:56.450Z,1007.64
2016-09-17T09:26:56.473Z,1007.66
2016-09-17T09:27:56.500Z,1007.66
2016-09-17T09:28:56.526Z,1007.69
2016-09-17T09:29:56.550Z,1007.66
2016-09-17T09:30:56.576Z,1007.63
2016-09-17T09:31:56.601Z,1007.58
2016-09-17T09:32:56.627Z,1007.6
2016-09-17T09:33:56.648Z,1007.54
2016-09-17T09:34:56.676Z,1007.49
2016-09-17T09:35:56.701Z,1007.5
2016-09-17T09:36:56.727Z,1007.49
2016-09-17T09:37:56.751Z,1007.52
2016-09-17T09:38:56.774Z,1007.48
2016-09-17T09:39:56.800Z,1007.45
2016-09-17T09:40:56.824Z,1007.37
2016-09-17T09:42:56.874Z,1007.47
2016-09-17T09:43:56.899Z,1007.45
2016-09-17T09:44:56.922Z,1007.46
2016-09-17T09:45:56.948Z,1007.44
2016-09-17T09:46:56.973Z,1007.44
2016-09-17T09:47:57.001Z,1007.46
2016-09-17T09:48:57.025Z,1007.51
2016-09-17T09:49:57.049Z,1007.53
2016-09-17T09:50:57.074Z,1007.49
2016-09-17T09:51:57.098Z,1007.48
2016-09-17T09:52:57.123Z,1007.5
2016-09-17T09:53:57.148Z,1007.38
2016-09-17T09:54:57.171Z,1007.39
2016-09-17T09:55:57.197Z,1007.44
2016-09-17T09:56:57.220Z,1007.37
2016-09-17T09:58:57.269Z,1007.36
2016-09-17T09:59:57.346Z,1007.32
2016-09-17T10:00:57.319Z,1007.36
2016-09-17T10:01:57.346Z,1007.28
2016-09-17T10:02:57.370Z,1007.21
2016-09-17T10:03:57.395Z,1007.18
2016-09-17T10:04:57.419Z,1007.2
2016-09-17T10:05:57.444Z,1007.19
2016-09-17T10:06:57.468Z,1007.32
2016-09-17T10:07:57.492Z,1007.27
2016-09-17T10:08:57.517Z,1007.27
2016-09-17T10:09:57.540Z,1007.27
2016-09-17T10:10:57.566Z,1007.27
2016-09-17T10:11:57.591Z,1007.31
2016-09-17T10:12:57.616Z,1007.34
2016-09-17T10:14:57.664Z,1007.4
2016-09-17T10:15:57.690Z,1007.42
2016-09-17T10:16:57.715Z,1007.4
2016-09-17T10:17:57.738Z,1007.4
2016-09-17T10:18:57.763Z,1007.39
2016-09-17T10:19:57.786Z,1007.38
2016-09-17T10:20:57.811Z,1007.4
2016-09-17T10:21:57.834Z,1007.37
2016-09-17T10:22:57.862Z,1007.48
2016-09-17T10:23:57.885Z,1007.41
2016-09-17T10:24:57.911Z,1007.47
2016-09-17T10:25:57.937Z,1007.48
2016-09-17T10:26:57.961Z,1007.36
2016-09-17T10:27:57.984Z,1007.45
2016-09-17T10:28:58.009Z,1007.42
2016-09-17T10:30:58.061Z,1007.36
2016-09-17T10:31:58.084Z,1007.42
2016-09-17T10:32:58.108Z,1007.41
2016-09-17T10:33:58.133Z,1007.42
2016-09-17T10:34:58.159Z,1007.42
2016-09-17T10:35:58.182Z,1007.43
2016-09-17T10:36:58.208Z,1007.42
2016-09-17T10:37:58.233Z,1007.46
2016-09-17T10:38:58.261Z,1007.43
2016-09-17T10:39:58.283Z,1007.41
2016-09-17T10:40:58.309Z,1007.42
2016-09-17T10:41:58.336Z,1007.44
2016-09-17T10:42:58.362Z,1007.43
2016-09-17T10:43:58.385Z,1007.43
2016-09-17T10:45:58.446Z,1007.51
2016-09-17T10:46:58.511Z,1007.48
2016-09-17T10:47:58.487Z,1007.52
2016-09-17T10:48:58.512Z,1007.49
2016-09-17T10:49:58.538Z,1007.5
2016-09-17T10:50:58.563Z,1007.55
2016-09-17T10:51:58.588Z,1007.57
2016-09-17T10:52:58.615Z,1007.56
2016-09-17T10:53:58.639Z,1007.55
2016-09-17T10:54:58.665Z,1007.62
2016-09-17T10:55:58.693Z,1007.59
2016-09-17T10:56:58.731Z,1007.6
2016-09-17T10:57:58.742Z,1007.61
2016-09-17T10:58:58.768Z,1007.61
2016-09-17T10:59:58.796Z,1007.65
2016-09-17T11:00:58.822Z,1007.58
2016-09-17T11:01:58.845Z,1007.55
2016-09-17T11:02:58.873Z,1007.66
2016-09-17T11:03:58.899Z,1007.63
2016-09-17T11:04:58.922Z,1007.53
2016-09-17T11:05:58.950Z,1007.6
2016-09-17T11:06:58.975Z,1007.61
2016-09-17T11:07:59.003Z,1007.6
2016-09-17T11:08:59.029Z,1007.59
2016-09-17T11:09:59.054Z,1007.59
2016-09-17T11:10:59.081Z,1007.6
2016-09-17T11:11:59.105Z,1007.67
2016-09-17T11:12:59.130Z,1007.62
2016-09-17T11:13:59.158Z,1007.62
2016-09-17T11:14:59.183Z,1007.61
2016-09-17T11:15:59.210Z,1007.58
2016-09-17T11:17:59.260Z,1007.63
2016-09-17T11:18:59.289Z,1007.6
2016-09-17T11:19:59.315Z,1007.61
2016-09-17T11:20:59.345Z,1007.59
2016-09-17T11:21:59.368Z,1007.56
2016-09-17T11:22:59.392Z,1007.59
2016-09-17T11:23:59.419Z,1007.55
2016-09-17T11:24:59.445Z,1007.54
2016-09-17T11:25:59.469Z,1007.54
2016-09-17T11:26:59.497Z,1007.64
2016-09-17T11:27:59.521Z,1007.61
2016-09-17T11:28:59.550Z,1007.7
2016-09-17T11:29:59.576Z,1007.6
2016-09-17T11:30:59.600Z,1007.65
2016-09-17T11:31:59.626Z,1007.66
2016-09-17T11:33:59.681Z,1007.62
2016-09-17T11:34:59.707Z,1007.63
2016-09-17T11:35:59.733Z,1007.58
2016-09-17T11:36:59.760Z,1007.62
2016-09-17T11:37:59.785Z,1007.59
2016-09-17T11:38:59.821Z,1007.6
2016-09-17T11:39:59.839Z,1007.61
2016-09-17T11:40:59.862Z,1007.58
2016-09-17T11:41:59.890Z,1007.58
2016-09-17T11:42:59.914Z,1007.51
2016-09-17T11:43:59.943Z,1007.6
2016-09-17T11:44:59.970Z,1007.58
2016-09-17T11:45:59.993Z,1007.6
2016-09-17T11:47:00.072Z,1007.61
2016-09-17T11:48:00.047Z,1007.62
2016-09-17T11:50:00.101Z,1007.57
2016-09-17T11:51:00.127Z,1007.53
2016-09-17T11:52:00.153Z,1007.56
2016-09-17T11:53:00.180Z,1007.57
2016-09-17T11:54:00.206Z,1007.56
2016-09-17T11:55:00.232Z,1007.53
2016-09-17T11:56:00.259Z,1007.57
2016-09-17T11:57:00.285Z,1007.72
2016-09-17T11:58:00.312Z,1007.59
2016-09-17T11:59:00.339Z,1007.55
2016-09-17T12:00:00.367Z,1007.6
2016-09-17T12:01:00.392Z,1007.56
2016-09-17T12:02:00.419Z,1007.58
2016-09-17T12:03:00.446Z,1007.59
2016-09-17T12:04:00.472Z,1007.59
2016-09-17T12:06:00.526Z,1007.61
2016-09-17T12:07:00.553Z,1007.63
2016-09-17T12:08:00.582Z,1007.58
2016-09-17T12:09:00.609Z,1007.57
2016-09-17T12:10:00.634Z,1007.55
2016-09-17T12:11:00.662Z,1007.58
2016-09-17T12:12:00.689Z,1007.67
2016-09-17T12:13:00.716Z,1007.6
2016-09-17T12:14:00.742Z,1007.57
2016-09-17T12:15:00.768Z,1007.59
2016-09-17T12:16:00.796Z,1007.58
2016-09-17T12:17:00.824Z,1007.61
2016-09-17T12:18:00.849Z,1007.55
2016-09-17T12:19:00.879Z,1007.61
2016-09-17T12:21:00.933Z,1007.69
2016-09-17T12:22:00.957Z,1007.74
2016-09-17T12:23:00.984Z,1007.63
2016-09-17T12:24:01.011Z,1007.78
2016-09-17T12:25:01.041Z,1007.72
2016-09-17T12:26:01.065Z,1007.62
2016-09-17T12:27:01.092Z,1007.64
2016-09-17T12:28:01.121Z,1007.64
2016-09-17T12:29:01.145Z,1007.67
2016-09-17T12:30:01.175Z,1007.79
2016-09-17T12:31:01.200Z,1007.62
2016-09-17T12:32:01.228Z,1007.64
2016-09-17T12:33:01.253Z,1007.68
2016-09-17T12:34:01.282Z,1007.69
2016-09-17T12:35:01.307Z,1007.62
2016-09-17T12:36:01.336Z,1007.68
2016-09-17T12:37:01.362Z,1007.66
2016-09-17T12:38:01.396Z,1007.61
2016-09-17T12:39:01.413Z,1007.6
2016-09-17T12:40:01.442Z,1007.69
2016-09-17T12:41:01.468Z,1007.6
2016-09-17T12:42:01.495Z,1007.52
2016-09-17T12:43:01.520Z,1007.62
2016-09-17T12:44:01.546Z,1007.62
2016-09-17T12:45:01.573Z,1007.61
2016-09-17T12:46:01.602Z,1007.66
2016-09-17T12:47:01.629Z,1007.55
2016-09-17T12:48:01.655Z,1007.65
2016-09-17T12:49:01.680Z,1007.62